createdAt,value
2017-08-26T00:00:25.377Z,86.40
2017-08-26T00:02:18.618Z,86.68
2017-08-26T00:03:19.062Z,86.78
2017-08-26T00:05:12.302Z,86.11
2017-08-26T00:06:12.734Z,86.07
2017-08-26T00:07:13.177Z,85.97
2017-08-26T00:09:06.405Z,86.58
2017-08-26T00:10:06.844Z,86.30
2017-08-26T00:11:07.275Z,86.01
2017-08-26T00:12:07.713Z,86.11
2017-08-26T00:13:08.142Z,86.30
2017-08-26T00:14:08.593Z,86.11
2017-08-26T00:16:01.801Z,86.16
2017-08-26T00:17:02.246Z,85.97
2017-08-26T00:18:02.681Z,85.58
2017-08-26T00:19:03.121Z,85.21
2017-08-26T00:20:56.344Z,85.30
2017-08-26T00:21:56.796Z,85.49
2017-08-26T00:22:57.224Z,86.16
2017-08-26T00:24:50.487Z,86.07
2017-08-26T00:25:50.925Z,85.97
2017-08-26T00:27:45.123Z,85.88
2017-08-26T00:29:38.365Z,86.54
2017-08-26T00:30:38.790Z,86.16
2017-08-26T00:31:39.227Z,86.07
2017-08-26T00:33:32.453Z,86.07
2017-08-26T00:34:34.699Z,86.07
2017-08-26T00:36:26.109Z,86.07
2017-08-26T00:37:26.559Z,86.07
2017-08-26T00:38:27.012Z,85.88
2017-08-26T00:40:20.213Z,85.49
2017-08-26T00:41:20.658Z,85.21
2017-08-26T00:42:21.094Z,85.45
2017-08-26T00:44:14.312Z,85.30
2017-08-26T00:45:14.752Z,85.39
2017-08-26T00:46:15.186Z,85.49
2017-08-26T00:47:15.623Z,86.07
2017-08-26T00:49:08.831Z,85.39
2017-08-26T00:50:09.278Z,85.30
2017-08-26T00:51:09.721Z,85.35
2017-08-26T00:52:10.147Z,85.54
2017-08-26T00:53:10.583Z,84.88
2017-08-26T00:54:11.020Z,84.58
2017-08-26T00:56:04.246Z,84.78
2017-08-26T00:57:04.680Z,84.97
2017-08-26T00:58:05.114Z,84.88
2017-08-26T00:59:05.547Z,85.06
2017-08-26T01:00:58.802Z,84.88
2017-08-26T01:01:59.225Z,84.88
2017-08-26T01:02:59.643Z,85.16
2017-08-26T01:04:00.102Z,85.35
2017-08-26T01:05:53.285Z,85.25
2017-08-26T01:06:53.726Z,85.06
2017-08-26T01:07:54.159Z,85.16
2017-08-26T01:08:54.598Z,85.16
2017-08-26T01:09:55.030Z,84.68
2017-08-26T01:10:55.463Z,84.88
2017-08-26T01:11:55.903Z,84.39
2017-08-26T01:13:49.121Z,84.58
2017-08-26T01:14:49.561Z,84.58
2017-08-26T01:15:49.997Z,84.58
2017-08-26T01:17:43.209Z,84.39
2017-08-26T01:18:43.668Z,84.68
2017-08-26T01:19:44.091Z,84.30
2017-08-26T01:21:37.348Z,84.78
2017-08-26T01:22:37.752Z,84.78
2017-08-26T01:23:38.182Z,84.88
2017-08-26T01:24:38.615Z,84.78
2017-08-26T01:25:39.055Z,84.88
2017-08-26T01:27:32.275Z,84.68
2017-08-26T01:28:32.740Z,84.78
2017-08-26T01:29:33.151Z,84.68
2017-08-26T01:31:26.379Z,85.83
2017-08-26T01:32:26.814Z,85.45
2017-08-26T01:33:27.245Z,85.06
2017-08-26T01:34:27.685Z,85.16
2017-08-26T01:36:20.904Z,84.97
2017-08-26T01:38:14.117Z,86.12
2017-08-26T01:39:14.557Z,86.50
2017-08-26T01:40:14.997Z,87.27
2017-08-26T01:42:08.207Z,85.83
2017-08-26T01:43:08.659Z,86.31
2017-08-26T01:44:09.088Z,86.50
2017-08-26T01:45:09.523Z,86.21
2017-08-26T01:47:02.730Z,86.12
2017-08-26T01:48:03.170Z,86.31
2017-08-26T01:49:03.606Z,86.02
2017-08-26T01:50:04.055Z,86.12
2017-08-26T01:51:57.265Z,85.93
2017-08-26T01:52:57.714Z,85.25
2017-08-26T01:53:58.140Z,85.93
2017-08-26T01:54:58.578Z,86.50
2017-08-26T01:56:51.787Z,86.41
2017-08-26T01:58:45.010Z,85.93
2017-08-26T01:59:45.464Z,84.88
2017-08-26T02:02:19.963Z,84.88
2017-08-26T02:03:20.417Z,85.45
2017-08-26T02:04:20.845Z,85.83
2017-08-26T02:05:21.278Z,86.02
2017-08-26T02:06:21.713Z,86.41
2017-08-26T02:07:22.153Z,86.31
2017-08-26T02:08:22.579Z,86.88
2017-08-26T02:10:15.801Z,86.50
2017-08-26T02:11:16.242Z,86.88
2017-08-26T02:12:16.679Z,87.17
2017-08-26T02:13:17.110Z,86.21
2017-08-26T02:15:10.329Z,85.93
2017-08-26T02:16:10.785Z,86.12
2017-08-26T02:17:11.207Z,86.31
2017-08-26T02:18:11.636Z,86.21
2017-08-26T02:20:05.835Z,86.21
2017-08-26T02:21:06.278Z,86.41
2017-08-26T02:22:06.715Z,86.31
2017-08-26T02:23:07.144Z,86.60
2017-08-26T02:25:00.363Z,86.12
2017-08-26T02:26:00.804Z,86.50
2017-08-26T02:27:01.238Z,86.41
2017-08-26T02:28:01.669Z,86.21
2017-08-26T02:29:54.888Z,86.79
2017-08-26T02:30:55.323Z,86.98
2017-08-26T02:31:55.753Z,85.83
2017-08-26T02:32:56.192Z,85.25
2017-08-26T02:33:56.616Z,85.93
2017-08-26T02:34:57.060Z,86.41
2017-08-26T02:35:57.482Z,86.41
2017-08-26T02:36:57.924Z,86.12
2017-08-26T02:38:51.138Z,86.31
2017-08-26T02:39:51.578Z,86.31
2017-08-26T02:40:52.016Z,86.12
2017-08-26T02:42:45.225Z,86.02
2017-08-26T02:43:45.669Z,86.60
2017-08-26T02:44:46.107Z,86.94
2017-08-26T02:45:46.536Z,86.36
2017-08-26T02:47:39.748Z,86.50
2017-08-26T02:48:40.189Z,86.36
2017-08-26T02:49:40.623Z,87.13
2017-08-26T02:50:41.061Z,86.84
2017-08-26T02:51:41.518Z,86.21
2017-08-26T02:53:34.726Z,85.98
2017-08-26T02:54:35.150Z,85.98
2017-08-26T02:55:35.594Z,86.36
2017-08-26T02:56:36.016Z,86.17
2017-08-26T02:57:36.454Z,86.27
2017-08-26T02:58:36.892Z,85.21
2017-08-26T03:00:30.095Z,85.41
2017-08-26T03:01:30.544Z,84.74
2017-08-26T03:02:30.972Z,85.69
2017-08-26T03:03:31.421Z,85.60
2017-08-26T03:04:31.838Z,84.45
2017-08-26T03:05:32.274Z,84.64
2017-08-26T03:06:32.701Z,84.55
2017-08-26T03:07:33.140Z,84.55
2017-08-26T03:09:27.341Z,85.12
2017-08-26T03:10:27.779Z,84.55
2017-08-26T03:11:28.214Z,84.45
2017-08-26T03:12:28.676Z,84.02
2017-08-26T03:14:21.854Z,84.31
2017-08-26T03:16:15.076Z,84.12
2017-08-26T03:17:15.520Z,83.54
2017-08-26T03:18:15.950Z,83.73
2017-08-26T03:19:16.389Z,83.64
2017-08-26T03:20:16.816Z,84.59
2017-08-26T03:21:17.250Z,83.54
2017-08-26T03:22:17.702Z,84.12
2017-08-26T03:24:10.958Z,84.41
2017-08-26T03:25:11.394Z,83.73
2017-08-26T03:26:11.821Z,84.02
2017-08-26T03:27:12.256Z,83.83
2017-08-26T03:28:12.687Z,83.73
2017-08-26T03:29:13.124Z,83.73
2017-08-26T03:31:06.343Z,84.31
2017-08-26T03:32:06.784Z,84.41
2017-08-26T03:33:07.220Z,84.12
2017-08-26T03:34:07.655Z,84.41
2017-08-26T03:35:08.085Z,84.31
2017-08-26T03:37:01.289Z,84.88
2017-08-26T03:38:54.517Z,84.50
2017-08-26T03:39:54.956Z,84.41
2017-08-26T03:40:55.388Z,84.50
2017-08-26T03:42:48.602Z,85.17
2017-08-26T03:43:49.041Z,85.27
2017-08-26T03:44:49.477Z,85.27
2017-08-26T03:45:49.914Z,85.55
2017-08-26T03:47:43.126Z,84.59
2017-08-26T03:48:43.573Z,84.59
2017-08-26T03:49:44.008Z,84.12
2017-08-26T03:51:37.210Z,83.83
2017-08-26T03:52:37.657Z,83.64
2017-08-26T03:53:38.091Z,83.73
2017-08-26T03:54:38.520Z,83.36
2017-08-26T03:55:38.950Z,83.73
2017-08-26T03:57:32.159Z,83.45
2017-08-26T03:58:32.602Z,83.64
2017-08-26T03:59:33.040Z,83.73
2017-08-26T04:00:33.470Z,83.73
2017-08-26T04:01:33.898Z,83.16
2017-08-26T04:02:34.336Z,83.45
2017-08-26T04:04:27.551Z,83.73
2017-08-26T04:05:27.986Z,83.93
2017-08-26T04:06:28.418Z,83.64
2017-08-26T04:07:28.874Z,83.45
2017-08-26T04:09:22.066Z,83.64
2017-08-26T04:10:22.508Z,83.93
2017-08-26T04:11:22.941Z,84.12
2017-08-26T04:13:16.151Z,83.83
2017-08-26T04:14:16.600Z,84.31
2017-08-26T04:15:17.024Z,84.31
2017-08-26T04:16:17.460Z,83.64
2017-08-26T04:17:17.895Z,84.41
2017-08-26T04:19:11.103Z,84.50
2017-08-26T04:20:11.543Z,84.22
2017-08-26T04:21:11.981Z,85.08
2017-08-26T04:22:12.413Z,84.41
2017-08-26T04:23:12.844Z,84.41
2017-08-26T04:24:13.273Z,84.50
2017-08-26T04:25:13.707Z,84.41
2017-08-26T04:26:14.157Z,84.69
2017-08-26T04:28:07.362Z,84.98
2017-08-26T04:29:07.800Z,84.79
2017-08-26T04:30:08.234Z,85.65
2017-08-26T04:32:02.432Z,86.04
2017-08-26T04:33:02.875Z,85.98
2017-08-26T04:34:03.306Z,85.98
2017-08-26T04:35:03.744Z,86.46
2017-08-26T04:36:56.956Z,86.46
2017-08-26T04:37:57.397Z,86.84
2017-08-26T04:38:57.859Z,86.55
2017-08-26T04:39:58.268Z,86.84
2017-08-26T04:41:52.478Z,87.23
2017-08-26T04:42:52.916Z,86.94
2017-08-26T04:43:53.346Z,87.32
2017-08-26T04:45:46.578Z,85.98
2017-08-26T04:46:47.014Z,87.23
2017-08-26T04:47:47.468Z,87.27
2017-08-26T04:49:40.660Z,87.84
2017-08-26T04:50:41.098Z,88.03
2017-08-26T04:51:41.549Z,88.03
2017-08-26T04:52:41.974Z,88.32
2017-08-26T04:54:35.193Z,88.51
2017-08-26T04:55:35.636Z,88.42
2017-08-26T04:57:28.854Z,88.27
2017-08-26T04:58:29.287Z,88.17
2017-08-26T04:59:29.730Z,88.17
2017-08-26T05:00:30.162Z,88.37
2017-08-26T05:02:23.379Z,88.37
2017-08-26T05:03:23.819Z,88.65
2017-08-26T05:04:24.291Z,88.37
2017-08-26T05:06:17.468Z,88.17
2017-08-26T05:07:17.907Z,88.84
2017-08-26T05:08:18.340Z,88.89
2017-08-26T05:09:18.780Z,88.89
2017-08-26T05:10:19.214Z,89.08
2017-08-26T05:12:12.447Z,88.51
2017-08-26T05:13:12.888Z,88.98
2017-08-26T05:14:13.364Z,88.79
2017-08-26T05:15:13.753Z,89.18
2017-08-26T05:17:07.366Z,88.89
2017-08-26T05:18:07.775Z,88.31
2017-08-26T05:19:08.212Z,88.51
2017-08-26T05:21:02.925Z,88.79
2017-08-26T05:22:03.367Z,89.18
2017-08-26T05:23:03.808Z,89.18
2017-08-26T05:24:04.262Z,89.08
2017-08-26T05:25:04.673Z,89.03
2017-08-26T05:26:05.126Z,89.22
2017-08-26T05:27:58.355Z,88.65
2017-08-26T05:28:58.799Z,88.79
2017-08-26T05:29:59.226Z,89.12
2017-08-26T05:30:59.663Z,88.74
2017-08-26T05:32:00.100Z,88.93
2017-08-26T05:33:00.534Z,89.12
2017-08-26T05:34:00.971Z,89.41
2017-08-26T05:35:54.203Z,88.93
2017-08-26T05:36:54.653Z,89.03
2017-08-26T05:38:47.882Z,89.32
2017-08-26T05:39:48.330Z,89.32
2017-08-26T05:40:48.752Z,89.12
2017-08-26T05:42:41.974Z,89.17
2017-08-26T05:43:42.421Z,89.12
2017-08-26T05:44:42.864Z,88.93
2017-08-26T05:46:36.084Z,89.26
2017-08-26T05:47:36.518Z,89.26
2017-08-26T05:49:58.555Z,89.36
2017-08-26T05:51:30.610Z,89.26
2017-08-26T05:52:31.058Z,89.65
2017-08-26T05:53:31.496Z,89.46
2017-08-26T05:54:31.936Z,89.60
2017-08-26T05:55:32.373Z,89.22
2017-08-26T05:56:32.807Z,88.64
2017-08-26T05:58:26.040Z,88.73
2017-08-26T05:59:26.481Z,88.83
2017-08-26T06:00:26.919Z,88.64
2017-08-26T06:01:27.358Z,89.22
2017-08-26T06:03:21.569Z,88.64
2017-08-26T06:04:22.013Z,89.22
2017-08-26T06:05:22.479Z,88.49
2017-08-26T06:06:22.893Z,88.97
2017-08-26T06:08:17.104Z,88.59
2017-08-26T06:09:17.556Z,88.87
2017-08-26T06:10:17.987Z,88.78
2017-08-26T06:11:18.423Z,88.68
2017-08-26T06:12:18.869Z,88.87
2017-08-26T06:14:12.136Z,88.87
2017-08-26T06:15:12.545Z,88.34
2017-08-26T06:16:13.008Z,88.44
2017-08-26T06:18:06.199Z,89.07
2017-08-26T06:19:06.648Z,88.87
2017-08-26T06:20:07.088Z,88.78
2017-08-26T06:21:07.552Z,88.53
2017-08-26T06:23:00.765Z,88.34
2017-08-26T06:24:01.219Z,88.44
2017-08-26T06:25:55.420Z,88.06
2017-08-26T06:26:55.871Z,87.76
2017-08-26T06:27:56.321Z,87.62
2017-08-26T06:28:56.749Z,87.52
2017-08-26T06:30:50.961Z,87.81
2017-08-26T06:31:51.408Z,87.04
2017-08-26T06:32:51.847Z,86.94
2017-08-26T06:33:52.289Z,86.94
2017-08-26T06:35:45.520Z,87.23
2017-08-26T06:36:45.974Z,86.65
2017-08-26T06:38:40.185Z,87.04
2017-08-26T06:39:40.631Z,86.69
2017-08-26T06:40:41.073Z,87.18
2017-08-26T06:41:41.516Z,86.94
2017-08-26T06:43:35.730Z,87.18
2017-08-26T06:45:30.033Z,85.93
2017-08-26T06:46:30.397Z,86.22
2017-08-26T06:47:30.831Z,86.22
2017-08-26T06:49:24.078Z,86.02
2017-08-26T06:50:24.511Z,85.44
2017-08-26T06:51:24.965Z,85.54
2017-08-26T06:53:18.188Z,85.64
2017-08-26T06:54:18.640Z,85.74
2017-08-26T06:56:11.916Z,85.25
2017-08-26T06:57:12.313Z,85.68
2017-08-26T06:58:12.754Z,85.87
2017-08-26T06:59:13.198Z,84.81
2017-08-26T07:01:07.415Z,84.18
2017-08-26T07:02:07.866Z,83.99
2017-08-26T07:03:08.303Z,83.89
2017-08-26T07:05:02.518Z,83.26
2017-08-26T07:06:02.975Z,83.80
2017-08-26T07:07:03.406Z,83.64
2017-08-26T07:08:56.654Z,82.49
2017-08-26T07:09:57.104Z,82.62
2017-08-26T07:10:57.547Z,82.53
2017-08-26T07:11:57.983Z,81.76
2017-08-26T07:12:58.425Z,81.27
2017-08-26T07:13:58.872Z,81.81
2017-08-26T07:14:59.318Z,81.76
2017-08-26T07:16:52.606Z,81.43
2017-08-26T07:18:45.834Z,81.57
2017-08-26T07:19:46.285Z,81.72
2017-08-26T07:20:46.732Z,80.56
2017-08-26T07:21:47.181Z,81.52
2017-08-26T07:23:40.404Z,81.72
2017-08-26T07:24:40.852Z,81.62
2017-08-26T07:25:41.292Z,81.81
2017-08-26T07:26:41.735Z,81.33
2017-08-26T07:28:35.952Z,80.66
2017-08-26T07:29:36.417Z,81.62
2017-08-26T07:30:36.876Z,81.52
2017-08-26T07:32:30.090Z,81.52
2017-08-26T07:33:30.543Z,81.62
2017-08-26T07:35:23.808Z,81.43
2017-08-26T07:36:24.232Z,81.62
2017-08-26T07:38:18.493Z,82.68
2017-08-26T07:39:18.917Z,82.49
2017-08-26T07:40:19.354Z,82.29
2017-08-26T07:42:13.560Z,82.39
2017-08-26T07:43:14.024Z,82.29
2017-08-26T07:45:08.248Z,81.72
2017-08-26T07:47:01.492Z,81.76
2017-08-26T07:48:01.947Z,81.60
2017-08-26T07:49:02.377Z,80.35
2017-08-26T07:50:56.595Z,80.20
2017-08-26T07:51:57.049Z,78.94
2017-08-26T07:52:57.490Z,79.43
2017-08-26T07:53:57.939Z,78.59
2017-08-26T07:54:58.388Z,77.92
2017-08-26T07:56:52.610Z,77.73
2017-08-26T07:57:53.059Z,77.48
2017-08-26T07:58:53.512Z,76.86
2017-08-26T07:59:53.955Z,77.63
2017-08-26T08:00:54.401Z,77.15
2017-08-26T08:01:54.844Z,76.70
2017-08-26T08:02:55.299Z,76.67
2017-08-26T08:04:48.542Z,76.42
2017-08-26T08:05:48.993Z,75.74
2017-08-26T08:06:49.444Z,75.16
2017-08-26T08:08:42.677Z,75.26
2017-08-26T08:09:43.132Z,74.54
2017-08-26T08:10:43.587Z,75.51
2017-08-26T08:11:44.027Z,76.63
2017-08-26T08:12:44.474Z,77.01
2017-08-26T08:13:44.922Z,76.92
2017-08-26T08:14:45.367Z,77.07
2017-08-26T08:16:38.612Z,78.61
2017-08-26T08:17:39.070Z,78.42
2017-08-26T08:19:32.303Z,79.19
2017-08-26T08:20:32.755Z,79.29
2017-08-26T08:21:33.202Z,79.00
2017-08-26T08:22:33.645Z,79.29
2017-08-26T08:24:26.882Z,78.71
2017-08-26T08:25:27.335Z,79.10
2017-08-26T08:26:27.794Z,78.42
2017-08-26T08:27:28.225Z,78.23
2017-08-26T08:29:21.456Z,79.29
2017-08-26T08:30:21.915Z,79.10
2017-08-26T08:31:22.355Z,79.25
2017-08-26T08:32:22.798Z,79.16
2017-08-26T08:33:23.240Z,79.89
2017-08-26T08:34:23.686Z,80.66
2017-08-26T08:36:16.917Z,80.37
2017-08-26T08:37:17.381Z,80.56
2017-08-26T08:38:17.815Z,80.56
2017-08-26T08:39:18.254Z,81.04
2017-08-26T08:41:11.480Z,81.24
2017-08-26T08:43:04.713Z,80.76
2017-08-26T08:44:05.162Z,80.99
2017-08-26T08:45:05.612Z,80.79
2017-08-26T08:46:06.049Z,80.69
2017-08-26T08:47:59.276Z,79.83
2017-08-26T08:49:52.511Z,79.58
2017-08-26T08:50:52.962Z,79.10
2017-08-26T08:51:53.408Z,79.10
2017-08-26T08:52:53.854Z,79.49
2017-08-26T08:54:47.108Z,79.00
2017-08-26T08:55:47.537Z,79.24
2017-08-26T08:56:47.980Z,78.71
2017-08-26T08:57:48.421Z,79.49
2017-08-26T08:58:48.882Z,78.52
2017-08-26T08:59:49.308Z,77.88
2017-08-26T09:00:49.753Z,77.78
2017-08-26T09:01:50.195Z,77.69
2017-08-26T09:02:50.643Z,77.59
2017-08-26T09:03:51.090Z,77.84
2017-08-26T09:04:51.534Z,77.75
2017-08-26T09:05:51.995Z,77.50
2017-08-26T09:07:45.209Z,77.30
2017-08-26T09:08:45.666Z,78.08
2017-08-26T09:09:46.108Z,78.08
2017-08-26T09:10:46.552Z,76.95
2017-08-26T09:11:46.996Z,76.28
2017-08-26T09:13:40.241Z,76.57
2017-08-26T09:14:40.687Z,76.76
2017-08-26T09:15:41.139Z,76.86
2017-08-26T09:17:34.374Z,75.99
2017-08-26T09:18:34.828Z,75.89
2017-08-26T09:19:35.272Z,75.45
2017-08-26T09:20:35.718Z,74.96
2017-08-26T09:22:28.952Z,74.58
2017-08-26T09:23:29.406Z,74.48
2017-08-26T09:24:29.870Z,74.58
2017-08-26T09:25:30.319Z,73.19
2017-08-26T09:27:23.562Z,74.06
2017-08-26T09:29:16.804Z,73.19
2017-08-26T09:30:17.256Z,73.48
2017-08-26T09:31:17.701Z,73.48
2017-08-26T09:32:18.145Z,72.90
2017-08-26T09:33:18.595Z,72.36
2017-08-26T09:34:19.038Z,71.81
2017-08-26T09:35:19.484Z,70.94
2017-08-26T09:36:19.935Z,71.04
2017-08-26T09:38:13.205Z,69.27
2017-08-26T09:39:13.656Z,67.82
2017-08-26T09:40:14.100Z,68.15
2017-08-26T09:41:14.558Z,67.50
2017-08-26T09:43:07.793Z,65.20
2017-08-26T09:44:08.254Z,64.72
2017-08-26T09:45:08.698Z,64.72
2017-08-26T09:47:01.944Z,65.01
2017-08-26T09:48:02.407Z,66.75
2017-08-26T09:49:02.852Z,67.56
2017-08-26T09:50:03.298Z,68.11
2017-08-26T09:51:56.542Z,67.91
2017-08-26T09:52:56.994Z,68.95
2017-08-26T09:53:57.445Z,68.66
2017-08-26T09:54:57.894Z,69.53
2017-08-26T09:55:58.343Z,69.53
2017-08-26T09:56:58.799Z,69.88
2017-08-26T09:58:52.028Z,70.50
2017-08-26T10:00:45.266Z,71.04
2017-08-26T10:01:45.728Z,71.04
2017-08-26T10:02:46.177Z,70.30
2017-08-26T10:03:46.624Z,70.20
2017-08-26T10:04:47.070Z,70.30
2017-08-26T10:05:47.515Z,70.84
2017-08-26T10:06:47.962Z,70.59
2017-08-26T10:07:48.408Z,70.84
2017-08-26T10:08:48.861Z,71.10
2017-08-26T10:10:42.103Z,71.42
2017-08-26T10:11:42.554Z,71.23
2017-08-26T10:12:43.001Z,71.00
2017-08-26T10:13:43.449Z,72.06
2017-08-26T10:14:43.899Z,71.78
2017-08-26T10:16:38.130Z,71.68
2017-08-26T10:17:38.578Z,71.58
2017-08-26T10:18:39.033Z,71.72
2017-08-26T10:19:39.474Z,71.42
2017-08-26T10:21:32.706Z,71.72
2017-08-26T10:23:25.959Z,71.04
2017-08-26T10:24:26.403Z,71.14
2017-08-26T10:25:26.849Z,72.30
2017-08-26T10:26:27.302Z,72.39
2017-08-26T10:28:20.535Z,71.04
2017-08-26T10:29:20.993Z,71.42
2017-08-26T10:30:21.439Z,71.04
2017-08-26T10:31:21.882Z,70.98
2017-08-26T10:32:22.332Z,70.24
2017-08-26T10:34:15.576Z,70.43
2017-08-26T10:35:16.025Z,68.69
2017-08-26T10:36:16.472Z,68.33
2017-08-26T10:37:16.924Z,67.56
2017-08-26T10:38:17.373Z,67.37
2017-08-26T10:40:11.594Z,68.40
2017-08-26T10:42:05.832Z,70.75
2017-08-26T10:43:06.288Z,71.62
2017-08-26T10:44:06.750Z,71.81
2017-08-26T10:45:59.983Z,71.52
2017-08-26T10:47:00.445Z,70.98
2017-08-26T10:48:00.884Z,70.30
2017-08-26T10:49:01.339Z,69.62
2017-08-26T10:50:54.583Z,69.08
2017-08-26T10:51:55.043Z,69.17
2017-08-26T10:52:55.491Z,69.46
2017-08-26T10:54:48.730Z,68.40
2017-08-26T10:56:41.993Z,69.08
2017-08-26T10:57:42.463Z,68.33
2017-08-26T10:58:42.904Z,67.66
2017-08-26T11:00:37.124Z,66.53
2017-08-26T11:02:30.387Z,66.82
2017-08-26T11:03:30.833Z,66.14
2017-08-26T11:04:31.281Z,66.05
2017-08-26T11:05:31.732Z,66.34
2017-08-26T11:06:32.176Z,66.14
2017-08-26T11:07:32.634Z,66.34
2017-08-26T11:08:33.085Z,65.66
2017-08-26T11:10:26.316Z,66.78
2017-08-26T11:11:26.791Z,66.50
2017-08-26T11:12:27.233Z,66.60
2017-08-26T11:13:27.690Z,67.02
2017-08-26T11:14:28.127Z,66.05
2017-08-26T11:16:21.372Z,65.89
2017-08-26T11:17:21.836Z,63.98
2017-08-26T11:18:22.281Z,63.49
2017-08-26T11:19:22.732Z,63.53
2017-08-26T11:21:15.981Z,63.04
2017-08-26T11:22:16.447Z,62.29
2017-08-26T11:23:16.899Z,62.16
2017-08-26T11:25:10.131Z,61.13
2017-08-26T11:26:10.599Z,61.85
2017-08-26T11:27:11.045Z,62.72
2017-08-26T11:28:11.511Z,63.33
2017-08-26T11:30:04.762Z,61.61
2017-08-26T11:31:05.222Z,60.74
2017-08-26T11:32:05.669Z,60.48
2017-08-26T11:33:58.953Z,60.35
2017-08-26T11:34:59.412Z,62.36
2017-08-26T11:36:52.663Z,63.10
2017-08-26T11:37:53.141Z,63.13
2017-08-26T11:38:53.596Z,64.27
2017-08-26T11:40:47.622Z,62.55
2017-08-26T11:41:47.862Z,62.59
2017-08-26T11:42:48.332Z,62.16
2017-08-26T11:43:48.795Z,63.95
2017-08-26T11:44:49.232Z,65.69
2017-08-26T11:45:49.688Z,65.05
2017-08-26T11:46:50.138Z,64.56
2017-08-26T11:47:50.590Z,64.56
2017-08-26T11:48:51.046Z,64.30
2017-08-26T11:50:44.292Z,63.75
2017-08-26T11:51:44.959Z,63.82
2017-08-26T11:52:45.190Z,62.88
2017-08-26T11:53:45.653Z,63.72
2017-08-26T11:54:46.105Z,62.68
2017-08-26T11:56:39.370Z,63.43
2017-08-26T11:57:39.827Z,63.85
2017-08-26T11:59:33.090Z,61.87
2017-08-26T12:00:33.548Z,60.48
2017-08-26T12:02:27.792Z,61.68
2017-08-26T12:04:22.017Z,62.91
2017-08-26T12:05:22.480Z,63.33
2017-08-26T12:06:22.938Z,63.78
2017-08-26T12:08:16.195Z,63.88
2017-08-26T12:09:16.646Z,63.43
2017-08-26T12:10:17.095Z,64.56
2017-08-26T12:12:10.336Z,64.56
2017-08-26T12:13:10.792Z,65.24
2017-08-26T12:14:11.278Z,64.85
2017-08-26T12:15:11.693Z,64.95
2017-08-26T12:16:12.145Z,64.85
2017-08-26T12:18:06.370Z,64.37
2017-08-26T12:20:00.617Z,65.05
2017-08-26T12:21:01.078Z,64.75
2017-08-26T12:22:01.534Z,64.75
2017-08-26T12:23:55.763Z,66.47
2017-08-26T12:24:56.217Z,67.98
2017-08-26T12:25:56.668Z,67.98
2017-08-26T12:26:57.124Z,67.88
2017-08-26T12:28:50.354Z,67.63
2017-08-26T12:29:50.813Z,67.05
2017-08-26T12:30:51.259Z,67.24
2017-08-26T12:31:51.718Z,66.95
2017-08-26T12:32:52.166Z,66.95
2017-08-26T12:34:45.427Z,66.85
2017-08-26T12:36:38.653Z,67.98
2017-08-26T12:37:39.110Z,68.47
2017-08-26T12:38:39.577Z,68.66
2017-08-26T12:39:40.035Z,68.95
2017-08-26T12:41:33.252Z,69.82
2017-08-26T12:42:33.725Z,69.63
2017-08-26T12:43:34.158Z,69.98
2017-08-26T12:45:27.395Z,70.86
2017-08-26T12:47:20.639Z,70.31
2017-08-26T12:49:13.882Z,69.92
2017-08-26T12:50:14.343Z,69.95
2017-08-26T12:51:14.789Z,70.01
2017-08-26T12:52:15.236Z,71.24
2017-08-26T12:53:15.685Z,70.50
2017-08-26T12:54:16.137Z,70.25
2017-08-26T12:55:16.588Z,70.15
2017-08-26T12:56:17.037Z,69.95
2017-08-26T12:57:17.501Z,69.18
2017-08-26T12:58:17.924Z,69.08
2017-08-26T12:59:18.372Z,69.53
2017-08-26T13:00:18.827Z,69.53
2017-08-26T13:01:19.272Z,70.05
2017-08-26T13:03:12.517Z,70.11
2017-08-26T13:04:12.974Z,69.92
2017-08-26T13:05:13.434Z,70.89
2017-08-26T13:07:07.652Z,71.08
2017-08-26T13:08:08.110Z,70.83
2017-08-26T13:09:08.553Z,70.25
2017-08-26T13:10:09.002Z,70.89
2017-08-26T13:12:02.247Z,70.73
2017-08-26T13:13:02.701Z,70.44
2017-08-26T13:14:03.156Z,70.44
2017-08-26T13:15:56.410Z,70.15
2017-08-26T13:16:56.857Z,70.83
2017-08-26T13:17:57.295Z,70.54
2017-08-26T13:18:57.743Z,71.08
2017-08-26T13:19:58.195Z,70.89
2017-08-26T13:20:58.641Z,70.98
2017-08-26T13:21:59.095Z,70.40
2017-08-26T13:22:59.541Z,71.28
2017-08-26T13:24:52.777Z,71.56
2017-08-26T13:25:53.235Z,70.92
2017-08-26T13:26:53.691Z,70.73
2017-08-26T13:28:46.921Z,71.47
2017-08-26T13:29:47.376Z,71.56
2017-08-26T13:30:47.822Z,71.86
2017-08-26T13:31:48.272Z,71.37
2017-08-26T13:32:48.718Z,71.37
2017-08-26T13:33:49.164Z,72.15
2017-08-26T13:34:49.617Z,71.37
2017-08-26T13:36:42.876Z,71.18
2017-08-26T13:37:43.319Z,71.76
2017-08-26T13:38:43.820Z,72.15
2017-08-26T13:39:44.209Z,72.63
2017-08-26T13:40:44.655Z,71.56
2017-08-26T13:42:38.893Z,72.15
2017-08-26T13:44:32.117Z,73.02
2017-08-26T13:45:32.582Z,71.95
2017-08-26T13:48:06.155Z,71.76
2017-08-26T13:50:00.370Z,71.95
2017-08-26T13:51:00.828Z,73.02
2017-08-26T13:52:01.281Z,72.34
2017-08-26T13:53:01.722Z,71.95
2017-08-26T13:54:02.169Z,71.95
2017-08-26T13:55:02.622Z,71.66
2017-08-26T13:56:55.864Z,71.31
2017-08-26T13:57:56.354Z,71.76
2017-08-26T13:58:56.758Z,71.86
2017-08-26T13:59:57.209Z,72.24
2017-08-26T14:00:57.656Z,71.60
2017-08-26T14:02:51.884Z,71.41
2017-08-26T14:03:52.336Z,71.60
2017-08-26T14:04:52.787Z,71.60
2017-08-26T14:05:53.238Z,71.31
2017-08-26T14:06:53.680Z,71.44
2017-08-26T14:07:54.128Z,71.70
2017-08-26T14:08:54.589Z,71.25
2017-08-26T14:10:47.806Z,70.47
2017-08-26T14:11:48.263Z,70.96
2017-08-26T14:12:48.724Z,70.92
2017-08-26T14:13:49.161Z,70.83
2017-08-26T14:14:49.613Z,71.50
2017-08-26T14:15:50.054Z,71.22
2017-08-26T14:16:50.510Z,70.86
2017-08-26T14:18:43.748Z,70.37
2017-08-26T14:19:44.206Z,70.28
2017-08-26T14:20:44.655Z,70.57
2017-08-26T14:21:45.102Z,70.18
2017-08-26T14:22:45.552Z,70.47
2017-08-26T14:24:38.785Z,70.76
2017-08-26T14:25:39.241Z,70.76
2017-08-26T14:26:39.694Z,70.92
2017-08-26T14:27:40.137Z,71.41
2017-08-26T14:28:40.599Z,71.31
2017-08-26T14:30:34.806Z,71.89
2017-08-26T14:31:35.259Z,72.09
2017-08-26T14:32:35.708Z,71.80
2017-08-26T14:33:36.153Z,72.28
2017-08-26T14:34:36.604Z,72.34
2017-08-26T14:35:37.060Z,73.60
2017-08-26T14:36:37.500Z,72.96
2017-08-26T14:37:37.950Z,71.89
2017-08-26T14:39:31.189Z,71.83
2017-08-26T14:40:31.657Z,71.89
2017-08-26T14:41:32.104Z,72.47
2017-08-26T14:43:25.345Z,72.86
2017-08-26T14:44:25.822Z,72.67
2017-08-26T14:45:26.251Z,72.09
2017-08-26T14:47:19.502Z,73.35
2017-08-26T14:48:19.964Z,73.69
2017-08-26T14:49:20.403Z,73.99
2017-08-26T14:50:20.854Z,74.05
2017-08-26T14:52:14.087Z,74.66
2017-08-26T14:53:14.539Z,74.34
2017-08-26T14:54:14.989Z,74.47
2017-08-26T14:55:15.442Z,75.31
2017-08-26T14:56:15.886Z,75.11
2017-08-26T14:57:16.329Z,76.08
2017-08-26T14:58:16.772Z,76.08
2017-08-26T14:59:17.219Z,75.50
2017-08-26T15:00:17.677Z,75.44
2017-08-26T15:01:18.122Z,75.89
2017-08-26T15:02:18.560Z,76.08
2017-08-26T15:03:19.010Z,75.98
2017-08-26T15:04:19.455Z,76.18
2017-08-26T15:06:12.685Z,75.92
2017-08-26T15:07:13.147Z,75.34
2017-08-26T15:08:13.592Z,75.73
2017-08-26T15:09:14.034Z,75.15
2017-08-26T15:10:14.482Z,75.15
2017-08-26T15:11:14.928Z,75.24
2017-08-26T15:13:09.144Z,74.47
2017-08-26T15:14:09.597Z,74.66
2017-08-26T15:15:10.047Z,75.05
2017-08-26T15:16:10.500Z,75.24
2017-08-26T15:17:10.944Z,74.76
2017-08-26T15:19:04.176Z,74.66
2017-08-26T15:20:04.635Z,75.28
2017-08-26T15:21:05.083Z,75.24
2017-08-26T15:22:05.525Z,75.44
2017-08-26T15:23:05.971Z,75.15
2017-08-26T15:24:06.416Z,75.44
2017-08-26T15:25:06.867Z,75.63
2017-08-26T15:27:00.096Z,76.21
2017-08-26T15:28:53.340Z,76.89
2017-08-26T15:30:47.572Z,77.44
2017-08-26T15:31:48.025Z,76.99
2017-08-26T15:32:48.469Z,76.41
2017-08-26T15:33:48.914Z,76.56
2017-08-26T15:34:49.358Z,76.76
2017-08-26T15:35:49.806Z,77.24
2017-08-26T15:37:43.055Z,77.34
2017-08-26T15:38:43.496Z,77.53
2017-08-26T15:39:43.947Z,77.73
2017-08-26T15:40:46.291Z,78.11
2017-08-26T15:42:12.793Z,77.92
2017-08-26T15:42:45.284Z,77.63
2017-08-26T15:44:39.503Z,78.08
2017-08-26T15:46:33.747Z,78.94
2017-08-26T15:47:34.183Z,78.94
2017-08-26T15:48:34.627Z,78.75
2017-08-26T15:49:35.080Z,78.69
2017-08-26T15:51:29.308Z,78.69
2017-08-26T15:53:23.584Z,79.08
2017-08-26T15:54:23.980Z,79.08
2017-08-26T15:55:24.426Z,78.50